createdAt,value
2023-03-29T00:02:02.890Z,101412.13
2023-03-29T00:04:29.812Z,101401.06
2023-03-29T00:06:56.973Z,101414.03
2023-03-29T00:09:26.560Z,101425.25
2023-03-29T00:11:53.413Z,101412.13
2023-03-29T00:14:20.240Z,101410.47
2023-03-29T00:16:47.151Z,101403.34
2023-03-29T00:19:13.962Z,101395.47
2023-03-29T00:21:40.924Z,101398.34
2023-03-29T00:24:07.864Z,101410.78
2023-03-29T00:26:34.875Z,101404.88
2023-03-29T00:29:01.825Z,101405.72
2023-03-29T00:31:28.694Z,101394.19
2023-03-29T00:33:55.874Z,101401.16
2023-03-29T00:36:23.345Z,101394.56
2023-03-29T00:38:50.038Z,101399.09
2023-03-29T00:41:16.889Z,101399.28
2023-03-29T00:43:59.870Z,101394.19
2023-03-29T00:46:28.427Z,101385.19
2023-03-29T00:49:02.304Z,101390.09
2023-03-29T00:51:32.928Z,101390.91
2023-03-29T00:54:03.494Z,101381.31
2023-03-29T00:56:35.350Z,101385.84
2023-03-29T00:59:23.777Z,101386.28
2023-03-29T01:01:58.744Z,101382.34
2023-03-29T01:04:47.682Z,101392.16
2023-03-29T01:07:26.011Z,101388.69
2023-03-29T01:10:04.632Z,101378.25
2023-03-29T01:12:36.098Z,101390.38
2023-03-29T01:15:10.013Z,101389.38
2023-03-29T01:17:38.711Z,101389.19
2023-03-29T01:20:14.384Z,101387.09
2023-03-29T01:23:10.397Z,101384.66
2023-03-29T01:26:04.553Z,101387.53
2023-03-29T01:28:38.836Z,101392.06
2023-03-29T01:31:11.224Z,101402.63
2023-03-29T01:33:49.171Z,101400.09
2023-03-29T01:36:21.219Z,101392.22
2023-03-29T01:39:00.890Z,101394.94
2023-03-29T01:41:40.602Z,101389.41
2023-03-29T01:44:17.570Z,101388.63
2023-03-29T01:46:52.433Z,101398.72
2023-03-29T01:49:25.787Z,101396.16
2023-03-29T01:52:03.488Z,101392.94
2023-03-29T01:54:43.663Z,101392.88
2023-03-29T01:57:12.328Z,101388.28
2023-03-29T01:59:43.676Z,101400.25
2023-03-29T02:02:14.822Z,101389.91
2023-03-29T02:04:50.173Z,101388.16
2023-03-29T02:07:21.529Z,101387.22
2023-03-29T02:09:52.716Z,101405.09
2023-03-29T02:12:20.879Z,101392.06
2023-03-29T02:14:47.638Z,101403.09
2023-03-29T02:17:26.323Z,101402.22
2023-03-29T02:20:00.799Z,101389.72
2023-03-29T02:22:37.613Z,101391.69
2023-03-29T02:25:08.988Z,101371.91
2023-03-29T02:27:38.108Z,101387.63
2023-03-29T02:30:07.485Z,101379.50
2023-03-29T02:32:48.918Z,101384.66
2023-03-29T02:35:45.795Z,101385.81
2023-03-29T02:38:14.772Z,101388.16
2023-03-29T02:40:42.972Z,101389.25
2023-03-29T02:43:11.783Z,101372.19
2023-03-29T02:45:40.568Z,101387.63
2023-03-29T02:48:12.555Z,101382.53
2023-03-29T02:50:41.772Z,101384.47
2023-03-29T02:53:17.177Z,101400.25
2023-03-29T02:55:46.946Z,101390.78
2023-03-29T02:58:15.595Z,101400.50
2023-03-29T03:00:46.712Z,101386.78
2023-03-29T03:03:15.667Z,101397.81
2023-03-29T03:05:45.006Z,101399.56
2023-03-29T03:08:11.851Z,101387.25
2023-03-29T03:10:39.357Z,101386.16
2023-03-29T03:13:06.721Z,101384.78
2023-03-29T03:15:35.954Z,101389.63
2023-03-29T03:18:03.853Z,101391.69
2023-03-29T03:20:31.255Z,101398.41
2023-03-29T03:22:58.557Z,101392.66
2023-03-29T03:25:25.906Z,101398.66
2023-03-29T03:27:53.212Z,101402.81
2023-03-29T03:30:22.666Z,101403.72
2023-03-29T03:32:58.219Z,101401.44
2023-03-29T03:35:46.393Z,101409.28
2023-03-29T03:38:15.402Z,101414.78
2023-03-29T03:40:43.516Z,101407.00
2023-03-29T03:43:10.464Z,101412.81
2023-03-29T03:45:37.304Z,101403.59
2023-03-29T03:48:11.805Z,101407.50
2023-03-29T03:50:51.240Z,101405.34
2023-03-29T03:53:18.897Z,101410.13
2023-03-29T03:56:09.314Z,101410.50
2023-03-29T03:58:51.770Z,101418.97
2023-03-29T04:01:19.726Z,101414.91
2023-03-29T04:03:58.081Z,101410.59
2023-03-29T04:06:25.505Z,101392.03
2023-03-29T04:09:13.072Z,101398.03
2023-03-29T04:11:43.110Z,101401.59
2023-03-29T04:14:11.229Z,101402.88
2023-03-29T04:16:58.436Z,101404.09
2023-03-29T04:19:43.813Z,101402.25
2023-03-29T04:22:11.108Z,101399.72
2023-03-29T04:24:38.101Z,101391.00
2023-03-29T04:27:33.345Z,101395.41
2023-03-29T04:30:05.152Z,101386.16
2023-03-29T04:32:52.287Z,101384.63
2023-03-29T04:35:19.325Z,101365.81
2023-03-29T04:37:46.194Z,101383.91
2023-03-29T04:40:15.522Z,101380.72
2023-03-29T04:43:08.149Z,101374.69
2023-03-29T04:45:37.350Z,101370.38
2023-03-29T04:48:12.982Z,101377.31
2023-03-29T04:50:46.814Z,101376.47
2023-03-29T04:53:15.455Z,101363.38
2023-03-29T04:55:43.775Z,101364.13
2023-03-29T04:58:14.738Z,101358.72
2023-03-29T05:00:43.076Z,101353.72
2023-03-29T05:03:13.519Z,101361.03
2023-03-29T05:05:50.730Z,101358.59
2023-03-29T05:08:17.919Z,101367.75
2023-03-29T05:11:10.517Z,101357.19
2023-03-29T05:13:38.034Z,101366.41
2023-03-29T05:16:06.875Z,101362.09
2023-03-29T05:18:33.889Z,101371.47
2023-03-29T05:21:01.065Z,101375.88
2023-03-29T05:23:28.962Z,101380.13
2023-03-29T05:26:15.482Z,101367.94
2023-03-29T05:28:48.417Z,101372.34
2023-03-29T05:31:17.070Z,101371.34
2023-03-29T05:33:48.238Z,101360.88
2023-03-29T05:36:17.552Z,101361.78
2023-03-29T05:38:46.793Z,101368.66
2023-03-29T05:41:15.932Z,101369.94
2023-03-29T05:44:01.626Z,101367.91
2023-03-29T05:46:29.726Z,101357.19
2023-03-29T05:49:00.877Z,101357.19
2023-03-29T05:51:45.799Z,101366.94
2023-03-29T05:54:13.138Z,101377.16
2023-03-29T05:56:39.935Z,101377.78
2023-03-29T05:59:08.523Z,101380.81
2023-03-29T06:01:35.907Z,101370.75
2023-03-29T06:04:06.625Z,101381.78
2023-03-29T06:06:41.719Z,101372.53
2023-03-29T06:09:09.525Z,101369.56
2023-03-29T06:11:40.835Z,101373.47
2023-03-29T06:14:34.104Z,101366.44
2023-03-29T06:17:14.759Z,101387.59
2023-03-29T06:19:42.256Z,101373.34
2023-03-29T06:22:09.048Z,101371.50
2023-03-29T06:24:35.878Z,101388.22
2023-03-29T06:27:09.114Z,101374.69
2023-03-29T06:29:36.301Z,101376.09
2023-03-29T06:32:03.375Z,101382.41
2023-03-29T06:34:48.075Z,101372.56
2023-03-29T06:37:33.000Z,101371.19
2023-03-29T06:40:23.017Z,101376.75
2023-03-29T06:42:51.142Z,101375.53
2023-03-29T06:45:38.093Z,101377.44
2023-03-29T06:48:10.757Z,101384.88
2023-03-29T06:50:37.762Z,101386.28
2023-03-29T06:53:13.427Z,101385.69
2023-03-29T06:55:42.149Z,101365.72
2023-03-29T06:58:29.165Z,101383.56
2023-03-29T07:01:04.861Z,101379.63
2023-03-29T07:03:46.686Z,101373.03
2023-03-29T07:06:20.449Z,101383.91
2023-03-29T07:08:52.347Z,101378.09
2023-03-29T07:11:46.707Z,101384.75
2023-03-29T07:14:21.974Z,101375.16
2023-03-29T07:16:49.603Z,101380.41
2023-03-29T07:19:30.342Z,101375.97
2023-03-29T07:22:22.249Z,101383.41
2023-03-29T07:24:54.339Z,101382.81
2023-03-29T07:27:21.188Z,101386.72
2023-03-29T07:29:50.071Z,101377.69
2023-03-29T07:32:18.003Z,101369.66
2023-03-29T07:34:44.774Z,101372.97
2023-03-29T07:37:19.698Z,101361.81
2023-03-29T07:39:47.374Z,101367.94
2023-03-29T07:42:31.366Z,101364.84
2023-03-29T07:44:58.664Z,101369.91
2023-03-29T07:47:30.631Z,101369.81
2023-03-29T07:49:59.293Z,101369.72
2023-03-29T07:52:28.069Z,101374.97
2023-03-29T07:54:56.150Z,101369.72
2023-03-29T07:57:27.743Z,101375.22
2023-03-29T07:59:57.043Z,101367.13
2023-03-29T08:02:27.473Z,101380.94
2023-03-29T08:04:58.953Z,101364.16
2023-03-29T08:07:46.100Z,101360.88
2023-03-29T08:10:27.870Z,101361.97
2023-03-29T08:13:24.062Z,101371.34
2023-03-29T08:16:14.801Z,101374.44
2023-03-29T08:18:49.550Z,101364.72
2023-03-29T08:21:17.317Z,101357.63
2023-03-29T08:23:47.758Z,101360.38
2023-03-29T08:26:36.449Z,101357.75
2023-03-29T08:29:04.131Z,101361.25
2023-03-29T08:31:30.873Z,101360.91
2023-03-29T08:33:58.131Z,101355.22
2023-03-29T08:36:43.669Z,101356.69
2023-03-29T08:39:19.696Z,101354.56
2023-03-29T08:42:06.719Z,101352.91
2023-03-29T08:44:56.078Z,101353.69
2023-03-29T08:47:26.859Z,101347.66
2023-03-29T08:49:56.592Z,101348.38
2023-03-29T08:52:43.256Z,101354.09
2023-03-29T08:55:42.856Z,101341.78
2023-03-29T08:58:32.726Z,101342.91
2023-03-29T09:01:03.596Z,101338.09
2023-03-29T09:03:45.396Z,101339.97
2023-03-29T09:06:22.076Z,101338.56
2023-03-29T09:08:52.675Z,101335.16
2023-03-29T09:11:23.735Z,101322.25
2023-03-29T09:13:54.164Z,101327.97
2023-03-29T09:16:30.619Z,101310.56
2023-03-29T09:19:15.649Z,101309.50
2023-03-29T09:22:18.805Z,101306.03
2023-03-29T09:25:10.823Z,101310.72
2023-03-29T09:27:55.768Z,101319.50
2023-03-29T09:30:41.692Z,101304.97
2023-03-29T09:33:29.443Z,101308.31
2023-03-29T09:36:40.655Z,101311.59
2023-03-29T09:39:09.873Z,101312.91
2023-03-29T09:41:44.911Z,101312.91
2023-03-29T09:44:29.817Z,101295.34
2023-03-29T09:47:32.610Z,101298.72
2023-03-29T09:50:23.082Z,101292.34
2023-03-29T09:52:54.588Z,101288.59
2023-03-29T09:55:28.717Z,101289.53
2023-03-29T09:58:13.737Z,101288.81
2023-03-29T10:00:45.395Z,101276.00
2023-03-29T10:03:24.553Z,101285.13
2023-03-29T10:06:09.934Z,101276.66
2023-03-29T10:08:46.264Z,101282.56
2023-03-29T10:11:47.734Z,101277.59
2023-03-29T10:14:21.305Z,101270.13
2023-03-29T10:16:55.854Z,101270.25
2023-03-29T10:19:32.973Z,101258.81
2023-03-29T10:22:08.421Z,101261.66
2023-03-29T10:24:35.203Z,101250.03
2023-03-29T10:27:06.929Z,101245.69
2023-03-29T10:29:40.240Z,101236.38
2023-03-29T10:32:23.079Z,101226.28
2023-03-29T10:34:52.162Z,101228.31
2023-03-29T10:37:21.152Z,101227.13
2023-03-29T10:39:48.988Z,101215.72
2023-03-29T10:42:18.576Z,101220.00
2023-03-29T10:44:58.183Z,101220.00
2023-03-29T10:47:26.142Z,101215.25
2023-03-29T10:49:56.832Z,101202.97
2023-03-29T10:52:25.198Z,101222.19
2023-03-29T10:54:54.617Z,101213.66
2023-03-29T10:57:51.860Z,101205.06
2023-03-29T11:00:29.046Z,101205.53
2023-03-29T11:03:20.222Z,101199.03
2023-03-29T11:05:52.525Z,101202.28
2023-03-29T11:08:43.649Z,101200.78
2023-03-29T11:11:20.024Z,101194.19
2023-03-29T11:14:13.667Z,101188.06
2023-03-29T11:17:15.884Z,101200.25
2023-03-29T11:20:08.371Z,101195.50
2023-03-29T11:22:52.373Z,101192.16
2023-03-29T11:25:30.152Z,101186.41
2023-03-29T11:28:15.725Z,101190.91
2023-03-29T11:31:06.355Z,101188.66
2023-03-29T11:33:42.279Z,101162.69
2023-03-29T11:36:39.311Z,101168.84
2023-03-29T11:39:12.194Z,101154.34
2023-03-29T11:41:43.962Z,101154.34
2023-03-29T11:44:34.219Z,101152.94
2023-03-29T11:47:22.720Z,101162.75
2023-03-29T11:50:28.111Z,101154.63
2023-03-29T11:53:02.238Z,101146.22
2023-03-29T11:55:33.849Z,101151.97
2023-03-29T11:58:13.286Z,101149.75
2023-03-29T12:00:58.339Z,101143.59
2023-03-29T12:03:46.216Z,101135.69
2023-03-29T12:07:01.753Z,101142.66
2023-03-29T12:09:47.877Z,101136.47
2023-03-29T12:12:53.146Z,101134.78
2023-03-29T12:15:24.973Z,101115.41
2023-03-29T12:18:17.950Z,101100.88
2023-03-29T12:20:49.850Z,101094.19
2023-03-29T12:23:18.005Z,101103.81
2023-03-29T12:26:12.020Z,101093.88
2023-03-29T12:28:57.344Z,101083.50
2023-03-29T12:31:24.192Z,101082.38
2023-03-29T12:34:14.194Z,101077.94
2023-03-29T12:37:24.679Z,101066.78
2023-03-29T12:40:19.203Z,101078.41
2023-03-29T12:43:08.717Z,101073.34
2023-03-29T12:45:58.200Z,101070.31
2023-03-29T12:48:28.098Z,101076.88
2023-03-29T12:51:02.818Z,101080.53
2023-03-29T12:53:35.768Z,101078.69
2023-03-29T12:56:04.049Z,101080.66
2023-03-29T12:58:40.308Z,101077.59
2023-03-29T13:01:24.961Z,101072.16
2023-03-29T13:04:01.718Z,101064.03
2023-03-29T13:06:56.351Z,101061.97
2023-03-29T13:09:30.079Z,101059.59
2023-03-29T13:12:13.056Z,101061.53
2023-03-29T13:14:46.429Z,101057.09
2023-03-29T13:17:26.005Z,101063.66
2023-03-29T13:20:09.547Z,101067.56
2023-03-29T13:22:59.217Z,101057.09
2023-03-29T13:25:45.150Z,101055.72
2023-03-29T13:28:19.971Z,101059.63
2023-03-29T13:30:58.938Z,101057.22
2023-03-29T13:33:34.647Z,101069.38
2023-03-29T13:36:11.776Z,101069.66
2023-03-29T13:38:54.339Z,101060.31
2023-03-29T13:41:40.389Z,101056.81
2023-03-29T13:44:24.995Z,101051.91
2023-03-29T13:47:14.037Z,101054.16
2023-03-29T13:49:44.592Z,101045.09
2023-03-29T13:52:34.540Z,101055.41
2023-03-29T13:55:04.324Z,101047.72
2023-03-29T13:57:39.685Z,101050.09
2023-03-29T14:00:20.226Z,101049.19
2023-03-29T14:02:58.471Z,101051.84
2023-03-29T14:05:41.897Z,101046.28
2023-03-29T14:08:36.005Z,101051.59
2023-03-29T14:11:06.974Z,101046.41
2023-03-29T14:13:34.892Z,101034.28
2023-03-29T14:16:06.945Z,101046.97
2023-03-29T14:18:37.955Z,101042.06
2023-03-29T14:21:05.732Z,101042.59
2023-03-29T14:23:35.236Z,101042.75
2023-03-29T14:26:16.648Z,101040.25
2023-03-29T14:28:48.711Z,101037.44
2023-03-29T14:31:21.841Z,101030.59
2023-03-29T14:33:57.491Z,101024.88
2023-03-29T14:36:27.190Z,101036.44
2023-03-29T14:38:59.530Z,101029.19
2023-03-29T14:41:31.293Z,101027.91
2023-03-29T14:43:59.317Z,101031.44
2023-03-29T14:46:27.337Z,101023.44
2023-03-29T14:48:55.876Z,101024.81
2023-03-29T14:51:28.590Z,101019.91
2023-03-29T14:53:57.537Z,101030.63
2023-03-29T14:56:26.357Z,101016.94
2023-03-29T14:58:56.960Z,101015.25
2023-03-29T15:01:26.197Z,101007.13
2023-03-29T15:04:11.053Z,101010.47
2023-03-29T15:06:42.493Z,101017.72
2023-03-29T15:09:19.909Z,101008.63
2023-03-29T15:11:52.680Z,101012.94
2023-03-29T15:14:21.134Z,101021.75
2023-03-29T15:16:50.181Z,101014.19
2023-03-29T15:19:21.025Z,101013.63
2023-03-29T15:21:49.907Z,101018.91
2023-03-29T15:24:28.548Z,101008.97
2023-03-29T15:27:17.046Z,101011.63
2023-03-29T15:29:46.935Z,101005.75
2023-03-29T15:32:25.693Z,101009.25
2023-03-29T15:35:04.994Z,101016.22
2023-03-29T15:37:32.130Z,101007.69
2023-03-29T15:39:59.076Z,101010.47
2023-03-29T15:42:26.352Z,101003.63
2023-03-29T15:44:56.653Z,101001.84
2023-03-29T15:47:24.074Z,100993.31
2023-03-29T15:49:50.934Z,100991.63
2023-03-29T15:52:17.723Z,100987.44
2023-03-29T15:54:44.455Z,100975.69
2023-03-29T15:57:15.206Z,100980.88
2023-03-29T15:59:43.570Z,100980.16
2023-03-29T16:02:17.545Z,100985.44
2023-03-29T16:04:44.533Z,100989.19
2023-03-29T16:07:17.094Z,100984.16
2023-03-29T16:09:45.957Z,100983.44
2023-03-29T16:12:13.543Z,100981.06
2023-03-29T16:14:42.638Z,100977.97
2023-03-29T16:17:09.919Z,100977.38
2023-03-29T16:19:36.680Z,100984.22
2023-03-29T16:22:07.378Z,100982.53
2023-03-29T16:24:35.610Z,100961.91
2023-03-29T16:27:02.836Z,100971.13
2023-03-29T16:29:30.430Z,100962.03
2023-03-29T16:31:57.658Z,100966.94
2023-03-29T16:34:24.745Z,100962.72
2023-03-29T16:36:53.053Z,100964.78
2023-03-29T16:39:19.919Z,100967.44
2023-03-29T16:41:48.852Z,100971.19
2023-03-29T16:44:18.988Z,100969.91
2023-03-29T16:46:47.310Z,100982.88
2023-03-29T16:49:18.183Z,100969.66
2023-03-29T16:51:47.204Z,100958.59
2023-03-29T16:54:15.026Z,100966.28
2023-03-29T16:56:41.874Z,100955.94
2023-03-29T16:59:09.347Z,100974.59
2023-03-29T17:01:36.585Z,100978.22
2023-03-29T17:04:04.193Z,100979.31
2023-03-29T17:06:32.674Z,100965.13
2023-03-29T17:09:00.764Z,100965.13
2023-03-29T17:11:28.331Z,100957.84
2023-03-29T17:13:56.113Z,100964.41
2023-03-29T17:16:23.035Z,100957.44
2023-03-29T17:18:50.180Z,100958.78
2023-03-29T17:21:17.129Z,100963.81
2023-03-29T17:23:43.877Z,100963.13
2023-03-29T17:26:11.899Z,100974.81
2023-03-29T17:28:38.995Z,100988.38
2023-03-29T17:31:09.735Z,100977.50
2023-03-29T17:33:36.691Z,100984.22
2023-03-29T17:36:05.856Z,100980.00
2023-03-29T17:38:34.205Z,100983.63
2023-03-29T17:41:02.784Z,100983.63
2023-03-29T17:43:29.593Z,100968.13
2023-03-29T17:45:56.693Z,100974.50
2023-03-29T17:48:24.386Z,100983.16
2023-03-29T17:50:51.508Z,100974.38
2023-03-29T17:53:18.253Z,100968.63
2023-03-29T17:55:45.038Z,100977.28
2023-03-29T17:58:11.849Z,100974.66
2023-03-29T18:00:38.721Z,100969.34
2023-03-29T18:03:05.908Z,100971.28
2023-03-29T18:05:34.309Z,100979.34
2023-03-29T18:08:01.444Z,100965.78
2023-03-29T18:10:28.291Z,100976.00
2023-03-29T18:12:55.190Z,100973.47
2023-03-29T18:15:22.042Z,100971.78
2023-03-29T18:17:48.890Z,100973.00
2023-03-29T18:20:16.218Z,100985.00
2023-03-29T18:22:44.340Z,100966.97
2023-03-29T18:25:11.314Z,100977.78
2023-03-29T18:27:39.414Z,100979.47
2023-03-29T18:30:08.663Z,100977.53
2023-03-29T18:32:36.382Z,100979.19
2023-03-29T18:35:03.542Z,100987.00
2023-03-29T18:37:30.466Z,100994.72
2023-03-29T18:39:57.213Z,100996.16
2023-03-29T18:42:24.011Z,101007.56
2023-03-29T18:44:51.282Z,101002.53
2023-03-29T18:47:18.459Z,101002.88
2023-03-29T18:49:45.648Z,101005.38
2023-03-29T18:52:12.559Z,100988.97
2023-03-29T18:54:39.461Z,101006.13
2023-03-29T18:57:06.411Z,101005.38
2023-03-29T18:59:35.909Z,101015.97
2023-03-29T19:02:03.523Z,101003.88
2023-03-29T19:04:30.525Z,101005.06
2023-03-29T19:07:01.799Z,101007.38
2023-03-29T19:09:28.855Z,101020.47
2023-03-29T19:11:55.674Z,101017.00
2023-03-29T19:14:25.239Z,101011.09
2023-03-29T19:16:52.799Z,101003.69
2023-03-29T19:19:21.387Z,101021.81
2023-03-29T19:21:48.830Z,101020.03
2023-03-29T19:24:16.594Z,101024.94
2023-03-29T19:26:44.470Z,101023.97
2023-03-29T19:29:11.765Z,101012.22
2023-03-29T19:31:39.001Z,101025.06
2023-03-29T19:34:07.110Z,101020.63
2023-03-29T19:36:33.963Z,101018.34
2023-03-29T19:39:01.244Z,101011.38
2023-03-29T19:41:28.622Z,101024.94
2023-03-29T19:43:55.535Z,101013.66
2023-03-29T19:46:22.858Z,101019.06
2023-03-29T19:48:51.707Z,101011.50
2023-03-29T19:51:18.718Z,101016.56
2023-03-29T19:53:45.418Z,101007.44
2023-03-29T19:56:14.396Z,101016.81
2023-03-29T19:58:41.356Z,101000.47
2023-03-29T20:01:08.122Z,101010.53
2023-03-29T20:03:36.158Z,101011.38
2023-03-29T20:06:03.462Z,100999.13
2023-03-29T20:08:30.545Z,100986.28
2023-03-29T20:11:03.556Z,100994.78
2023-03-29T20:13:38.063Z,101000.22
2023-03-29T20:16:16.291Z,100990.47
2023-03-29T20:18:46.676Z,100983.28
2023-03-29T20:21:16.484Z,100976.16
2023-03-29T20:23:44.215Z,100982.19
2023-03-29T20:26:11.195Z,100983.00
2023-03-29T20:28:38.171Z,100987.09
2023-03-29T20:31:06.862Z,100984.31
2023-03-29T20:33:33.840Z,100976.66
2023-03-29T20:36:01.014Z,100987.91
2023-03-29T20:38:28.020Z,100983.13
2023-03-29T20:40:55.439Z,100966.94
2023-03-29T20:43:22.381Z,100969.31
2023-03-29T20:45:52.622Z,100974.38
2023-03-29T20:48:23.220Z,100978.50
2023-03-29T20:50:50.973Z,100983.53
2023-03-29T20:53:18.363Z,100969.84
2023-03-29T20:55:45.410Z,100978.94
2023-03-29T20:58:12.310Z,100986.28
2023-03-29T21:00:40.445Z,100988.81
2023-03-29T21:03:08.627Z,100983.41
2023-03-29T21:05:35.786Z,100988.69
2023-03-29T21:08:04.505Z,100990.59
2023-03-29T21:10:31.950Z,100983.53
2023-03-29T21:13:02.597Z,100976.94
2023-03-29T21:15:30.665Z,100974.50
2023-03-29T21:17:58.376Z,100977.84
2023-03-29T21:20:25.458Z,100960.56
2023-03-29T21:22:52.198Z,100975.09
2023-03-29T21:25:19.376Z,100971.25
2023-03-29T21:27:46.301Z,100978.09
2023-03-29T21:30:13.322Z,100977.16
2023-03-29T21:32:40.155Z,100964.16
2023-03-29T21:35:07.578Z,100978.81
2023-03-29T21:37:34.383Z,100964.91
2023-03-29T21:40:05.505Z,100975.09
2023-03-29T21:42:33.407Z,100962.00
2023-03-29T21:45:01.719Z,100968.25
2023-03-29T21:47:28.524Z,100957.44
2023-03-29T21:49:55.362Z,100949.66
2023-03-29T21:52:22.461Z,100958.31
2023-03-29T21:54:49.207Z,100947.13
2023-03-29T21:57:16.291Z,100954.81
2023-03-29T21:59:43.237Z,100952.06
2023-03-29T22:02:10.282Z,100936.69
2023-03-29T22:04:37.785Z,100946.31
2023-03-29T22:07:06.018Z,100940.16
2023-03-29T22:09:35.002Z,100944.63
2023-03-29T22:12:02.972Z,100928.06
2023-03-29T22:14:34.840Z,100935.13
2023-03-29T22:17:05.746Z,100935.25
2023-03-29T22:19:34.789Z,100928.28
2023-03-29T22:22:01.690Z,100920.13
2023-03-29T22:24:29.163Z,100926.97
2023-03-29T22:26:56.200Z,100931.56
2023-03-29T22:29:23.136Z,100933.34
2023-03-29T22:31:50.553Z,100936.13
2023-03-29T22:34:17.495Z,100921.13
2023-03-29T22:36:44.278Z,100906.34
2023-03-29T22:39:12.057Z,100917.41
2023-03-29T22:41:39.065Z,100922.91
2023-03-29T22:44:05.936Z,100922.91
2023-03-29T22:46:32.796Z,100917.41
2023-03-29T22:48:59.704Z,100937.56
2023-03-29T22:51:27.264Z,100924.88
2023-03-29T22:53:54.070Z,100936.13
2023-03-29T22:56:22.157Z,100917.41
2023-03-29T22:58:49.209Z,100929.41
2023-03-29T23:01:16.257Z,100921.63
2023-03-29T23:03:43.214Z,100917.69
2023-03-29T23:06:10.282Z,100914.06
2023-03-29T23:08:37.208Z,100910.56
2023-03-29T23:11:05.183Z,100905.69
2023-03-29T23:13:33.636Z,100919.00
2023-03-29T23:16:02.459Z,100904.50
2023-03-29T23:18:31.727Z,100896.22
2023-03-29T23:20:59.065Z,100903.31
2023-03-29T23:23:27.578Z,100902.94
2023-03-29T23:25:55.851Z,100890.38
2023-03-29T23:28:30.225Z,100903.31
2023-03-29T23:31:18.502Z,100908.13
2023-03-29T23:33:45.729Z,100901.38
2023-03-29T23:36:15.328Z,100902.69
2023-03-29T23:38:44.606Z,100883.13
2023-03-29T23:41:12.931Z,100882.66
2023-03-29T23:43:42.014Z,100887.44
2023-03-29T23:46:14.244Z,100880.84
2023-03-29T23:48:49.099Z,100880.13
2023-03-29T23:51:23.258Z,100878.31
2023-03-29T23:53:50.718Z,100884.53
2023-03-29T23:56:17.715Z,100883.34
2023-03-29T23:58:44.887Z,100872.28
